LSZJ weather

Courtelary Airport
Canton of Berne, Switzerland

Public forecast

Using degrees Celsius for public forecast. Weather courtesy of forecast.io.

Closest aviation weather report (METAR) to Courtelary Airport

Closest report is Grenchen Airport, 13.3 nm (24.7 km) E. Retrieved 2019/10/18 13:20 UTC (0 seconds ago):

LSZG 181320Z 22007KT 9999 SCT027 SCT035 BKN049 16/13 Q1014 NOSIG

Closest aviation forecast (TAF) to Courtelary Airport

Closest forecast is Payerne Air Base, 21.7 nm (40.1 km) SSW. Retrieved 2019/10/18 10:00 UTC (3 hours ago):

TAF LSMP 180925Z 1810/1916 22004KT 9999 SCT020 BKN050 PROB40 TEMPO 1816/1822 SHRA TEMPO 1904/1907 RA